createdAt,value
2017-11-22T00:01:19.637Z,100.00
2017-11-22T00:03:47.619Z,100.00
2017-11-22T00:06:15.988Z,100.00
2017-11-22T00:08:43.954Z,100.00
2017-11-22T00:11:11.886Z,100.00
2017-11-22T00:13:39.789Z,100.00
2017-11-22T00:16:07.725Z,100.00
2017-11-22T00:18:35.645Z,100.00
2017-11-22T00:21:04.116Z,100.00
2017-11-22T00:23:32.181Z,100.00
2017-11-22T00:26:00.113Z,100.00
2017-11-22T00:28:28.052Z,100.00
2017-11-22T00:30:55.957Z,100.00
2017-11-22T00:33:23.866Z,100.00
2017-11-22T00:35:52.201Z,100.00
2017-11-22T00:38:20.112Z,100.00
2017-11-22T00:40:48.470Z,100.00
2017-11-22T00:43:16.417Z,100.00
2017-11-22T00:45:44.324Z,100.00
2017-11-22T00:48:12.657Z,100.00
2017-11-22T00:50:40.604Z,100.00
2017-11-22T00:53:08.568Z,100.00
2017-11-22T00:55:36.481Z,100.00
2017-11-22T00:58:04.387Z,100.00
2017-11-22T01:00:32.443Z,100.00
2017-11-22T01:03:00.773Z,100.00
2017-11-22T01:05:28.801Z,100.00
2017-11-22T01:07:57.172Z,99.96
2017-11-22T01:10:25.484Z,99.87
2017-11-22T01:12:53.398Z,99.92
2017-11-22T01:15:21.319Z,100.00
2017-11-22T01:17:49.276Z,100.00
2017-11-22T01:20:17.186Z,100.00
2017-11-22T01:22:45.104Z,100.00
2017-11-22T01:25:13.426Z,100.00
2017-11-22T01:27:41.421Z,100.00
2017-11-22T01:30:09.350Z,100.00
2017-11-22T01:32:37.261Z,100.00
2017-11-22T01:35:05.173Z,99.95
2017-11-22T01:37:33.191Z,100.00
2017-11-22T01:40:01.101Z,100.00
2017-11-22T01:42:29.075Z,100.00
2017-11-22T01:44:57.201Z,100.00
2017-11-22T01:47:25.116Z,100.00
2017-11-22T01:49:53.042Z,100.00
2017-11-22T01:52:21.055Z,99.85
2017-11-22T01:54:49.434Z,99.93
2017-11-22T01:57:17.374Z,100.00
2017-11-22T01:59:45.297Z,99.98
2017-11-22T02:02:13.233Z,99.77
2017-11-22T02:04:41.174Z,99.52
2017-11-22T02:07:09.101Z,99.57
2017-11-22T02:09:37.093Z,99.83
2017-11-22T02:12:05.026Z,99.94
2017-11-22T02:14:33.194Z,100.00
2017-11-22T02:17:01.119Z,100.00
2017-11-22T02:19:29.183Z,100.00
2017-11-22T02:21:57.105Z,100.00
2017-11-22T02:24:25.127Z,100.00
2017-11-22T02:26:53.093Z,99.79
2017-11-22T02:29:21.010Z,99.42
2017-11-22T02:31:48.934Z,99.28
2017-11-22T02:34:16.854Z,99.07
2017-11-22T02:36:44.766Z,99.10
2017-11-22T02:39:12.700Z,99.22
2017-11-22T02:41:40.716Z,99.45
2017-11-22T02:44:08.722Z,99.53
2017-11-22T02:46:36.645Z,99.42
2017-11-22T02:49:04.976Z,99.29
2017-11-22T02:51:32.901Z,99.09
2017-11-22T02:54:01.216Z,98.86
2017-11-22T02:56:29.172Z,98.83
2017-11-22T02:58:57.273Z,99.03
2017-11-22T03:01:25.260Z,99.03
2017-11-22T03:03:53.189Z,99.07
2017-11-22T03:06:21.105Z,99.04
2017-11-22T03:08:49.031Z,99.19
2017-11-22T03:11:16.959Z,99.56
2017-11-22T03:13:45.280Z,99.56
2017-11-22T03:16:13.206Z,99.60
2017-11-22T03:18:41.562Z,99.63
2017-11-22T03:21:09.501Z,99.52
2017-11-22T03:23:37.421Z,99.40
2017-11-22T03:26:05.731Z,99.44
2017-11-22T03:28:33.671Z,99.44
2017-11-22T03:31:01.978Z,99.56
2017-11-22T03:33:29.915Z,99.50
2017-11-22T03:35:58.265Z,99.37
2017-11-22T03:38:26.204Z,99.34
2017-11-22T03:40:54.121Z,99.29
2017-11-22T03:43:22.440Z,99.24
2017-11-22T03:45:50.368Z,99.23
2017-11-22T03:48:18.751Z,99.11
2017-11-22T03:50:52.695Z,99.09
2017-11-22T03:53:26.134Z,99.18
2017-11-22T03:55:54.102Z,99.28
2017-11-22T03:58:22.038Z,99.22
2017-11-22T04:00:50.039Z,99.03
2017-11-22T04:03:18.018Z,98.63
2017-11-22T04:05:57.578Z,98.66
2017-11-22T04:08:26.814Z,98.62
2017-11-22T04:10:54.760Z,98.61
2017-11-22T04:13:22.677Z,98.61
2017-11-22T04:15:50.682Z,98.42
2017-11-22T04:18:19.773Z,98.40
2017-11-22T04:20:53.416Z,98.28
2017-11-22T04:23:21.339Z,98.12
2017-11-22T04:25:49.674Z,97.96
2017-11-22T04:28:17.708Z,97.91
2017-11-22T04:30:45.699Z,98.03
2017-11-22T04:33:13.677Z,98.01
2017-11-22T04:35:41.597Z,98.06
2017-11-22T04:38:09.929Z,97.84
2017-11-22T04:40:37.841Z,97.77
2017-11-22T04:43:12.819Z,98.11
2017-11-22T04:45:40.727Z,98.05
2017-11-22T04:48:08.630Z,97.95
2017-11-22T04:50:36.575Z,97.84
2017-11-22T04:53:04.499Z,97.88
2017-11-22T04:55:32.428Z,97.86
2017-11-22T04:58:00.750Z,97.87
2017-11-22T05:00:28.665Z,97.72
2017-11-22T05:02:56.980Z,97.85
2017-11-22T05:05:24.894Z,97.67
2017-11-22T05:07:52.828Z,97.27
2017-11-22T05:10:20.729Z,97.22
2017-11-22T05:12:48.633Z,97.06
2017-11-22T05:15:16.546Z,96.81
2017-11-22T05:17:44.535Z,96.78
2017-11-22T05:20:12.500Z,97.15
2017-11-22T05:22:40.410Z,96.98
2017-11-22T05:25:08.326Z,96.84
2017-11-22T05:27:36.262Z,96.71
2017-11-22T05:30:04.183Z,96.59
2017-11-22T05:32:32.106Z,96.64
2017-11-22T05:35:00.024Z,96.94
2017-11-22T05:37:28.326Z,97.08
2017-11-22T05:39:56.262Z,96.70
2017-11-22T05:42:24.169Z,96.62
2017-11-22T05:44:52.185Z,97.23
2017-11-22T05:47:20.082Z,97.26
2017-11-22T05:49:48.434Z,96.94
2017-11-22T05:52:17.116Z,96.77
2017-11-22T05:54:45.085Z,97.17
2017-11-22T05:57:13.025Z,97.01
2017-11-22T05:59:40.953Z,97.08
2017-11-22T06:02:09.289Z,96.94
2017-11-22T06:04:37.274Z,97.21
2017-11-22T06:07:05.254Z,97.08
2017-11-22T06:09:33.195Z,96.91
2017-11-22T06:12:01.186Z,96.91
2017-11-22T06:14:29.181Z,96.98
2017-11-22T06:16:57.509Z,97.21
2017-11-22T06:19:25.529Z,97.21
2017-11-22T06:21:53.897Z,97.15
2017-11-22T06:24:22.275Z,97.39
2017-11-22T06:26:50.637Z,97.01
2017-11-22T06:29:18.625Z,97.07
2017-11-22T06:31:46.933Z,96.86
2017-11-22T06:34:14.958Z,96.81
2017-11-22T06:36:42.951Z,96.84
2017-11-22T06:39:10.887Z,96.87
2017-11-22T06:41:38.881Z,96.87
2017-11-22T06:44:07.239Z,96.91
2017-11-22T06:46:35.220Z,96.80
2017-11-22T06:49:03.538Z,96.69
2017-11-22T06:51:31.486Z,96.53
2017-11-22T06:53:59.529Z,96.69
2017-11-22T06:56:27.438Z,96.50
2017-11-22T06:58:55.369Z,96.33
2017-11-22T07:01:23.294Z,96.48
2017-11-22T07:03:55.120Z,96.75
2017-11-22T07:06:23.065Z,97.65
2017-11-22T07:08:51.043Z,97.68
2017-11-22T07:11:19.358Z,97.84
2017-11-22T07:13:47.281Z,97.63
2017-11-22T07:16:21.062Z,97.67
2017-11-22T07:18:49.040Z,97.56
2017-11-22T07:21:17.000Z,97.51
2017-11-22T07:23:44.902Z,97.62
2017-11-22T07:26:13.247Z,97.77
2017-11-22T07:28:41.174Z,97.85
2017-11-22T07:31:09.109Z,97.80
2017-11-22T07:33:37.423Z,97.87
2017-11-22T07:36:11.018Z,97.86
2017-11-22T07:38:38.942Z,97.47
2017-11-22T07:41:06.866Z,97.23
2017-11-22T07:43:34.824Z,97.19
2017-11-22T07:46:02.728Z,96.84
2017-11-22T07:48:30.634Z,96.82
2017-11-22T07:50:58.978Z,96.57
2017-11-22T07:53:26.897Z,96.61
2017-11-22T07:55:54.809Z,96.68
2017-11-22T07:58:22.745Z,96.55
2017-11-22T08:00:50.660Z,96.14
2017-11-22T08:03:22.504Z,96.39
2017-11-22T08:05:50.451Z,95.91
2017-11-22T08:08:18.379Z,95.74
2017-11-22T08:10:46.771Z,95.70
2017-11-22T08:13:14.717Z,95.47
2017-11-22T08:15:42.661Z,95.13
2017-11-22T08:18:10.598Z,94.90
2017-11-22T08:20:38.502Z,94.24
2017-11-22T08:23:06.426Z,94.60
2017-11-22T08:25:34.441Z,94.14
2017-11-22T08:28:02.356Z,94.09
2017-11-22T08:30:30.390Z,94.27
2017-11-22T08:32:58.295Z,94.40
2017-11-22T08:35:26.211Z,94.11
2017-11-22T08:37:54.140Z,93.89
2017-11-22T08:40:22.946Z,93.83
2017-11-22T08:42:56.543Z,93.96
2017-11-22T08:45:24.579Z,93.85
2017-11-22T08:47:52.878Z,93.16
2017-11-22T08:50:20.797Z,93.33
2017-11-22T08:52:48.706Z,93.05
2017-11-22T08:58:17.263Z,93.95
2017-11-22T09:00:45.217Z,93.57
2017-11-22T09:03:15.144Z,93.47
2017-11-22T09:05:49.005Z,93.13
2017-11-22T09:08:16.913Z,93.06
2017-11-22T09:10:44.875Z,92.99
2017-11-22T09:13:16.509Z,92.97
2017-11-22T09:15:44.517Z,92.29
2017-11-22T09:18:13.297Z,92.24
2017-11-22T09:20:41.214Z,92.32
2017-11-22T09:23:09.116Z,91.79
2017-11-22T09:25:37.101Z,91.41
2017-11-22T09:28:05.026Z,91.51
2017-11-22T09:30:32.955Z,91.77
2017-11-22T09:33:02.771Z,91.22
2017-11-22T09:35:30.677Z,90.50
2017-11-22T09:37:58.696Z,90.02
2017-11-22T09:40:26.706Z,89.44
2017-11-22T09:42:54.644Z,89.25
2017-11-22T09:45:22.638Z,88.75
2017-11-22T09:47:50.980Z,89.33
2017-11-22T09:50:18.890Z,89.22
2017-11-22T09:52:46.808Z,89.04
2017-11-22T09:55:14.786Z,88.84
2017-11-22T09:57:42.712Z,88.51
2017-11-22T10:00:10.717Z,88.89
2017-11-22T10:02:38.635Z,88.70
2017-11-22T10:05:06.569Z,88.80
2017-11-22T10:07:34.498Z,88.09
2017-11-22T10:10:02.455Z,88.00
2017-11-22T10:12:31.140Z,88.10
2017-11-22T10:14:59.168Z,87.63
2017-11-22T10:17:31.890Z,87.73
2017-11-22T10:20:03.765Z,88.24
2017-11-22T10:22:37.427Z,88.03
2017-11-22T10:25:10.340Z,87.25
2017-11-22T10:27:48.136Z,87.43
2017-11-22T10:30:16.125Z,86.52
2017-11-22T10:32:49.920Z,86.52
2017-11-22T10:35:17.934Z,85.64
2017-11-22T10:37:45.853Z,85.73
2017-11-22T10:40:13.766Z,85.01
2017-11-22T10:42:41.694Z,84.69
2017-11-22T10:45:09.639Z,85.15
2017-11-22T10:47:37.573Z,84.22
2017-11-22T10:50:05.505Z,84.88
2017-11-22T10:52:33.427Z,84.71
2017-11-22T10:55:01.762Z,85.05
2017-11-22T10:57:29.684Z,84.66
2017-11-22T10:59:58.037Z,85.47
2017-11-22T11:02:25.960Z,85.83
2017-11-22T11:04:53.973Z,84.89
2017-11-22T11:07:21.904Z,84.77
2017-11-22T11:09:49.919Z,85.00
2017-11-22T11:12:17.844Z,84.71
2017-11-22T11:14:45.759Z,84.69
2017-11-22T11:17:14.069Z,84.82
2017-11-22T11:19:42.099Z,83.74
2017-11-22T11:22:10.022Z,84.00
2017-11-22T11:24:52.732Z,84.06
2017-11-22T11:27:20.647Z,83.98
2017-11-22T11:29:48.572Z,83.92
2017-11-22T11:32:16.530Z,83.93
2017-11-22T11:34:44.546Z,83.99
2017-11-22T11:37:12.485Z,83.41
2017-11-22T11:39:40.409Z,83.22
2017-11-22T11:42:08.730Z,83.46
2017-11-22T11:44:36.660Z,83.32
2017-11-22T11:47:04.969Z,82.66
2017-11-22T11:49:32.907Z,82.17
2017-11-22T11:52:01.253Z,82.02
2017-11-22T11:54:29.217Z,82.78
2017-11-22T11:56:57.156Z,82.09
2017-11-22T11:59:25.066Z,81.92
2017-11-22T12:01:53.032Z,82.01
2017-11-22T12:04:20.949Z,81.46
2017-11-22T12:06:48.865Z,81.28
2017-11-22T12:09:16.841Z,82.00
2017-11-22T12:11:44.751Z,81.79
2017-11-22T12:14:12.792Z,81.65
2017-11-22T12:16:41.124Z,81.35
2017-11-22T12:19:09.135Z,81.45
2017-11-22T12:21:39.891Z,81.48
2017-11-22T12:24:07.825Z,81.46
2017-11-22T12:26:35.750Z,81.53
2017-11-22T12:29:03.674Z,81.12
2017-11-22T12:31:32.046Z,80.82
2017-11-22T12:33:59.952Z,81.00
2017-11-22T12:36:27.856Z,80.93
2017-11-22T12:38:55.801Z,80.54
2017-11-22T12:41:24.450Z,80.26
2017-11-22T12:43:52.877Z,80.05
2017-11-22T12:46:20.799Z,79.50
2017-11-22T12:48:49.131Z,79.61
2017-11-22T12:51:17.073Z,79.99
2017-11-22T12:53:44.982Z,80.22
2017-11-22T12:56:12.909Z,80.07
2017-11-22T12:58:40.850Z,80.03
2017-11-22T13:01:08.781Z,79.90
2017-11-22T13:03:36.713Z,79.65
2017-11-22T13:06:04.654Z,80.10
2017-11-22T13:08:33.332Z,79.85
2017-11-22T13:11:09.649Z,80.24
2017-11-22T13:13:37.744Z,80.02
2017-11-22T13:16:05.678Z,79.93
2017-11-22T13:18:33.605Z,80.22
2017-11-22T13:21:01.544Z,80.05
2017-11-22T13:23:29.461Z,79.99
2017-11-22T13:25:57.388Z,79.85
2017-11-22T13:28:25.307Z,79.70
2017-11-22T13:30:53.214Z,79.72
2017-11-22T13:33:21.133Z,79.67
2017-11-22T13:35:49.090Z,79.73
2017-11-22T13:38:17.024Z,79.61
2017-11-22T13:40:44.957Z,79.98
2017-11-22T13:43:12.989Z,79.78
2017-11-22T13:45:41.033Z,79.21
2017-11-22T13:48:08.967Z,79.44
2017-11-22T13:50:36.954Z,79.18
2017-11-22T13:53:04.945Z,79.66
2017-11-22T13:55:32.869Z,79.52
2017-11-22T13:58:00.816Z,79.88
2017-11-22T14:00:29.156Z,79.37
2017-11-22T14:02:57.089Z,79.67
2017-11-22T14:05:25.018Z,79.71
2017-11-22T14:07:53.384Z,79.82
2017-11-22T14:10:21.355Z,79.86
2017-11-22T14:12:49.273Z,80.04
2017-11-22T14:15:17.198Z,79.79
2017-11-22T14:17:45.566Z,79.73
2017-11-22T14:20:13.481Z,79.72
2017-11-22T14:22:41.415Z,79.50
2017-11-22T14:25:09.726Z,79.57
2017-11-22T14:27:37.652Z,79.43
2017-11-22T14:30:05.567Z,79.80
2017-11-22T14:32:33.473Z,79.92
2017-11-22T14:35:01.404Z,80.25
2017-11-22T14:37:29.334Z,80.04
2017-11-22T14:39:57.673Z,79.81
2017-11-22T14:42:25.592Z,80.12
2017-11-22T14:44:53.528Z,80.17
2017-11-22T14:47:21.449Z,80.33
2017-11-22T14:49:49.478Z,80.66
2017-11-22T14:52:17.406Z,80.78
2017-11-22T14:54:45.344Z,80.67
2017-11-22T14:57:13.286Z,80.29
2017-11-22T14:59:41.252Z,80.51
2017-11-22T15:02:09.565Z,80.93
2017-11-22T15:04:37.509Z,80.66
2017-11-22T15:07:05.812Z,80.86
2017-11-22T15:09:33.725Z,80.75
2017-11-22T15:12:01.649Z,81.07
2017-11-22T15:14:29.567Z,81.38
2017-11-22T15:16:57.637Z,81.29
2017-11-22T15:19:25.557Z,81.16
2017-11-22T15:21:53.649Z,81.35
2017-11-22T15:24:21.576Z,80.95
2017-11-22T15:26:49.891Z,81.59
2017-11-22T15:29:17.821Z,81.33
2017-11-22T15:31:45.733Z,81.26
2017-11-22T15:34:13.653Z,80.91
2017-11-22T15:36:41.977Z,80.93
2017-11-22T15:39:10.031Z,80.79
2017-11-22T15:41:37.964Z,81.14
2017-11-22T15:44:06.303Z,81.07
2017-11-22T15:46:34.207Z,80.88
2017-11-22T15:49:02.525Z,81.10
2017-11-22T15:51:30.436Z,81.39
2017-11-22T15:53:58.533Z,81.11
2017-11-22T15:56:26.857Z,81.10
2017-11-22T15:58:54.760Z,80.74
2017-11-22T16:01:22.810Z,81.43
2017-11-22T16:03:50.732Z,81.53
2017-11-22T16:06:18.765Z,80.68
2017-11-22T16:08:47.106Z,80.40
2017-11-22T16:11:15.011Z,80.60
2017-11-22T16:13:42.948Z,80.22
2017-11-22T16:16:10.882Z,79.61
2017-11-22T16:18:38.821Z,79.56
2017-11-22T16:21:06.732Z,79.31
2017-11-22T16:23:34.650Z,79.45
2017-11-22T16:26:03.406Z,79.51
2017-11-22T16:28:31.335Z,79.35
2017-11-22T16:31:00.629Z,79.89
2017-11-22T16:33:28.933Z,79.71
2017-11-22T16:35:56.840Z,79.54
2017-11-22T16:38:24.824Z,79.18
2017-11-22T16:40:52.749Z,79.22
2017-11-22T16:43:20.660Z,79.43
2017-11-22T16:45:48.585Z,79.54
2017-11-22T16:48:16.518Z,79.29
2017-11-22T16:50:44.835Z,79.54
2017-11-22T16:53:12.799Z,79.62
2017-11-22T16:55:40.808Z,79.96
2017-11-22T16:58:08.726Z,79.87
2017-11-22T17:00:36.687Z,80.01
2017-11-22T17:03:04.830Z,80.10
2017-11-22T17:05:33.168Z,80.10
2017-11-22T17:08:01.098Z,79.84
2017-11-22T17:10:29.056Z,79.71
2017-11-22T17:12:57.406Z,79.47
2017-11-22T17:15:25.445Z,79.20
2017-11-22T17:17:53.358Z,78.81
2017-11-22T17:20:21.299Z,78.95
2017-11-22T17:22:49.215Z,78.86
2017-11-22T17:25:17.568Z,78.61
2017-11-22T17:27:45.493Z,78.47
2017-11-22T17:30:13.431Z,78.18
2017-11-22T17:32:41.737Z,78.69
2017-11-22T17:35:09.743Z,78.48
2017-11-22T17:37:37.708Z,78.71
2017-11-22T17:40:05.657Z,78.81
2017-11-22T17:42:34.148Z,79.57
2017-11-22T17:45:02.057Z,80.12
2017-11-22T17:47:30.357Z,80.00
2017-11-22T17:49:58.396Z,80.47
2017-11-22T17:52:26.437Z,80.72
2017-11-22T17:54:54.365Z,80.63
2017-11-22T17:57:22.272Z,80.83
2017-11-22T17:59:50.372Z,80.78
2017-11-22T18:02:18.667Z,81.24
2017-11-22T18:04:46.993Z,81.46
2017-11-22T18:07:14.909Z,81.88
2017-11-22T18:09:43.208Z,81.97
2017-11-22T18:12:11.119Z,81.76
2017-11-22T18:14:39.037Z,82.47
2017-11-22T18:17:07.181Z,82.89
2017-11-22T18:19:35.506Z,83.31
2017-11-22T18:22:03.430Z,83.82
2017-11-22T18:24:31.745Z,83.68
2017-11-22T18:26:59.653Z,84.00
2017-11-22T18:29:27.629Z,84.25
2017-11-22T18:31:55.550Z,84.43
2017-11-22T18:34:23.466Z,84.61
2017-11-22T18:36:51.390Z,84.56
2017-11-22T18:39:19.309Z,84.93
2017-11-22T18:41:47.253Z,84.89
2017-11-22T18:44:15.243Z,85.03
2017-11-22T18:46:43.250Z,85.15
2017-11-22T18:49:11.197Z,85.21
2017-11-22T18:51:39.514Z,85.57
2017-11-22T18:54:07.441Z,85.91
2017-11-22T18:56:35.859Z,85.86
2017-11-22T18:59:03.799Z,86.04
2017-11-22T19:01:31.733Z,86.27
2017-11-22T19:03:59.654Z,86.04
2017-11-22T19:06:27.581Z,86.30
2017-11-22T19:08:55.499Z,86.23
2017-11-22T19:11:23.503Z,86.52
2017-11-22T19:13:51.465Z,86.51
2017-11-22T19:16:19.376Z,86.62
2017-11-22T19:18:47.317Z,86.23
2017-11-22T19:21:15.220Z,86.53
2017-11-22T19:23:43.141Z,86.86
2017-11-22T19:26:11.093Z,87.06
2017-11-22T19:28:39.000Z,86.80
2017-11-22T19:31:06.945Z,87.38
2017-11-22T19:33:34.851Z,87.02
2017-11-22T19:36:02.828Z,87.43
2017-11-22T19:38:30.758Z,87.51
2017-11-22T19:40:58.729Z,87.54
2017-11-22T19:43:26.876Z,87.56
2017-11-22T19:45:54.887Z,87.81
2017-11-22T19:48:22.840Z,88.07
2017-11-22T19:50:50.762Z,87.93
2017-11-22T19:53:18.693Z,88.13
2017-11-22T19:55:46.624Z,88.20
2017-11-22T19:58:14.541Z,88.58
2017-11-22T20:00:42.471Z,88.36
2017-11-22T20:03:10.389Z,88.45
2017-11-22T20:05:38.309Z,88.69
2017-11-22T20:08:17.917Z,88.84
2017-11-22T20:10:45.838Z,88.79
2017-11-22T20:13:13.757Z,88.83
2017-11-22T20:15:41.713Z,88.92
2017-11-22T20:18:09.631Z,88.63
2017-11-22T20:20:37.581Z,88.68
2017-11-22T20:23:05.485Z,88.83
2017-11-22T20:25:33.430Z,88.91
2017-11-22T20:28:01.337Z,89.07
2017-11-22T20:30:29.261Z,89.09
2017-11-22T20:32:57.220Z,88.79
2017-11-22T20:35:25.117Z,89.01
2017-11-22T20:37:53.032Z,89.28
2017-11-22T20:40:21.051Z,89.01
2017-11-22T20:42:48.954Z,89.15
2017-11-22T20:45:16.883Z,89.13
2017-11-22T20:47:44.817Z,89.18
2017-11-22T20:50:12.924Z,89.22
2017-11-22T20:52:40.901Z,89.41
2017-11-22T20:55:09.245Z,89.30
2017-11-22T20:57:37.156Z,89.42
2017-11-22T21:00:05.455Z,89.61
2017-11-22T21:02:33.359Z,89.28
2017-11-22T21:05:01.267Z,89.11
2017-11-22T21:07:29.182Z,89.11
2017-11-22T21:09:57.120Z,89.21
2017-11-22T21:12:25.038Z,89.33
2017-11-22T21:14:52.938Z,89.46
2017-11-22T21:17:21.266Z,89.52
2017-11-22T21:19:49.172Z,89.30
2017-11-22T21:22:17.121Z,89.68
2017-11-22T21:24:45.050Z,89.75
2017-11-22T21:27:12.952Z,89.70
2017-11-22T21:29:40.886Z,89.80
2017-11-22T21:32:08.818Z,89.79
2017-11-22T21:34:37.187Z,89.81
2017-11-22T21:37:05.938Z,90.02
2017-11-22T21:39:33.888Z,89.71
2017-11-22T21:42:02.087Z,90.00
2017-11-22T21:44:30.418Z,90.11
2017-11-22T21:46:59.413Z,90.15
2017-11-22T21:49:28.026Z,90.17
2017-11-22T21:51:56.705Z,90.20
2017-11-22T21:54:25.514Z,90.31
